sensor_id;sensor_type;location;lat;lon;timestamp;P1;durP1;ratioP1;P2;durP2;ratioP2
57389;SDS011;43217;52.694;6.214;2023-05-16T00:00:15;14.23;;;3.40;;
57389;SDS011;43217;52.694;6.214;2023-05-16T00:02:41;16.52;;;3.42;;
57389;SDS011;43217;52.694;6.214;2023-05-16T00:05:07;10.77;;;2.88;;
57389;SDS011;43217;52.694;6.214;2023-05-16T00:07:34;11.18;;;2.78;;
57389;SDS011;43217;52.694;6.214;2023-05-16T00:10:00;11.90;;;3.15;;
57389;SDS011;43217;52.694;6.214;2023-05-16T00:12:27;13.02;;;2.88;;
57389;SDS011;43217;52.694;6.214;2023-05-16T00:14:53;13.00;;;3.10;;
57389;SDS011;43217;52.694;6.214;2023-05-16T00:17:19;12.45;;;2.60;;
57389;SDS011;43217;52.694;6.214;2023-05-16T00:19:46;14.10;;;2.92;;
57389;SDS011;43217;52.694;6.214;2023-05-16T00:22:16;14.68;;;2.85;;
57389;SDS011;43217;52.694;6.214;2023-05-16T00:24:41;10.70;;;3.03;;
57389;SDS011;43217;52.694;6.214;2023-05-16T00:27:07;15.15;;;3.45;;
57389;SDS011;43217;52.694;6.214;2023-05-16T00:29:33;11.85;;;2.92;;
57389;SDS011;43217;52.694;6.214;2023-05-16T00:31:59;10.13;;;2.58;;
57389;SDS011;43217;52.694;6.214;2023-05-16T00:34:25;10.98;;;2.70;;
57389;SDS011;43217;52.694;6.214;2023-05-16T00:36:50;8.60;;;2.30;;
57389;SDS011;43217;52.694;6.214;2023-05-16T00:39:17;10.00;;;2.83;;
57389;SDS011;43217;52.694;6.214;2023-05-16T00:41:43;15.68;;;3.35;;
57389;SDS011;43217;52.694;6.214;2023-05-16T00:44:09;13.32;;;2.90;;
57389;SDS011;43217;52.694;6.214;2023-05-16T00:46:35;10.50;;;2.65;;
57389;SDS011;43217;52.694;6.214;2023-05-16T00:49:00;12.38;;;2.65;;
57389;SDS011;43217;52.694;6.214;2023-05-16T00:51:26;14.63;;;3.35;;
57389;SDS011;43217;52.694;6.214;2023-05-16T00:53:52;12.95;;;3.25;;
57389;SDS011;43217;52.694;6.214;2023-05-16T00:56:19;12.10;;;2.88;;
57389;SDS011;43217;52.694;6.214;2023-05-16T00:58:46;10.00;;;2.60;;
57389;SDS011;43217;52.694;6.214;2023-05-16T01:01:11;15.05;;;2.97;;
57389;SDS011;43217;52.694;6.214;2023-05-16T01:03:38;11.18;;;2.72;;
57389;SDS011;43217;52.694;6.214;2023-05-16T01:06:03;13.13;;;2.50;;
57389;SDS011;43217;52.694;6.214;2023-05-16T01:08:30;10.18;;;2.42;;
57389;SDS011;43217;52.694;6.214;2023-05-16T01:11:01;10.48;;;2.50;;
57389;SDS011;43217;52.694;6.214;2023-05-16T01:16:45;10.63;;;3.70;;
57389;SDS011;43217;52.694;6.214;2023-05-16T01:27:35;11.23;;;2.72;;
57389;SDS011;43217;52.694;6.214;2023-05-16T01:32:42;13.07;;;2.85;;
57389;SDS011;43217;52.694;6.214;2023-05-16T01:35:08;9.38;;;2.95;;
57389;SDS011;43217;52.694;6.214;2023-05-16T01:37:37;10.35;;;2.72;;
57389;SDS011;43217;52.694;6.214;2023-05-16T01:42:58;10.05;;;2.72;;
57389;SDS011;43217;52.694;6.214;2023-05-16T01:45:28;12.02;;;2.33;;
57389;SDS011;43217;52.694;6.214;2023-05-16T01:48:09;11.35;;;3.10;;
57389;SDS011;43217;52.694;6.214;2023-05-16T01:50:46;11.45;;;3.33;;
57389;SDS011;43217;52.694;6.214;2023-05-16T01:53:19;8.98;;;2.65;;
57389;SDS011;43217;52.694;6.214;2023-05-16T01:55:50;6.30;;;2.50;;
57389;SDS011;43217;52.694;6.214;2023-05-16T01:58:18;12.45;;;2.90;;
57389;SDS011;43217;52.694;6.214;2023-05-16T02:00:46;12.32;;;2.78;;
57389;SDS011;43217;52.694;6.214;2023-05-16T02:03:12;11.77;;;2.88;;
57389;SDS011;43217;52.694;6.214;2023-05-16T02:05:38;12.32;;;2.55;;
57389;SDS011;43217;52.694;6.214;2023-05-16T02:08:04;10.93;;;2.95;;
57389;SDS011;43217;52.694;6.214;2023-05-16T02:10:30;9.95;;;2.90;;
57389;SDS011;43217;52.694;6.214;2023-05-16T02:12:55;10.10;;;2.83;;
57389;SDS011;43217;52.694;6.214;2023-05-16T02:15:22;11.70;;;2.83;;
57389;SDS011;43217;52.694;6.214;2023-05-16T02:17:47;10.85;;;3.33;;
57389;SDS011;43217;52.694;6.214;2023-05-16T02:20:13;10.35;;;2.75;;
57389;SDS011;43217;52.694;6.214;2023-05-16T02:22:39;13.13;;;3.20;;
57389;SDS011;43217;52.694;6.214;2023-05-16T02:25:09;9.50;;;2.30;;
57389;SDS011;43217;52.694;6.214;2023-05-16T02:27:35;8.38;;;2.33;;
57389;SDS011;43217;52.694;6.214;2023-05-16T02:30:01;11.75;;;2.95;;
57389;SDS011;43217;52.694;6.214;2023-05-16T02:32:30;10.73;;;2.55;;
57389;SDS011;43217;52.694;6.214;2023-05-16T02:37:22;8.57;;;2.70;;
57389;SDS011;43217;52.694;6.214;2023-05-16T02:39:47;12.43;;;3.15;;
57389;SDS011;43217;52.694;6.214;2023-05-16T02:42:13;9.48;;;2.50;;
57389;SDS011;43217;52.694;6.214;2023-05-16T02:44:39;7.70;;;2.17;;
57389;SDS011;43217;52.694;6.214;2023-05-16T02:47:05;10.00;;;2.60;;
57389;SDS011;43217;52.694;6.214;2023-05-16T02:49:31;10.55;;;2.67;;
57389;SDS011;43217;52.694;6.214;2023-05-16T02:51:56;9.95;;;3.03;;
57389;SDS011;43217;52.694;6.214;2023-05-16T02:54:22;10.52;;;3.00;;
57389;SDS011;43217;52.694;6.214;2023-05-16T02:56:48;12.82;;;2.67;;
57389;SDS011;43217;52.694;6.214;2023-05-16T02:59:13;10.20;;;2.70;;
57389;SDS011;43217;52.694;6.214;2023-05-16T03:01:39;11.55;;;2.58;;
57389;SDS011;43217;52.694;6.214;2023-05-16T03:04:05;7.72;;;2.33;;
57389;SDS011;43217;52.694;6.214;2023-05-16T03:06:31;9.98;;;2.33;;
57389;SDS011;43217;52.694;6.214;2023-05-16T03:08:56;10.05;;;2.78;;
57389;SDS011;43217;52.694;6.214;2023-05-16T03:11:22;9.05;;;3.10;;
57389;SDS011;43217;52.694;6.214;2023-05-16T03:13:48;7.20;;;2.42;;
57389;SDS011;43217;52.694;6.214;2023-05-16T03:16:14;10.10;;;2.60;;
57389;SDS011;43217;52.694;6.214;2023-05-16T03:18:46;11.48;;;3.10;;
57389;SDS011;43217;52.694;6.214;2023-05-16T03:21:12;7.50;;;2.50;;
57389;SDS011;43217;52.694;6.214;2023-05-16T03:23:37;11.45;;;2.78;;
57389;SDS011;43217;52.694;6.214;2023-05-16T03:26:03;7.95;;;2.53;;
57389;SDS011;43217;52.694;6.214;2023-05-16T03:28:29;7.32;;;2.33;;
57389;SDS011;43217;52.694;6.214;2023-05-16T03:30:54;8.75;;;2.28;;
57389;SDS011;43217;52.694;6.214;2023-05-16T03:33:20;12.18;;;3.35;;
57389;SDS011;43217;52.694;6.214;2023-05-16T03:35:46;11.40;;;2.60;;
57389;SDS011;43217;52.694;6.214;2023-05-16T03:38:11;10.68;;;2.80;;
57389;SDS011;43217;52.694;6.214;2023-05-16T03:40:37;11.48;;;2.78;;
57389;SDS011;43217;52.694;6.214;2023-05-16T03:43:03;9.95;;;2.60;;
57389;SDS011;43217;52.694;6.214;2023-05-16T03:45:29;9.40;;;2.60;;
57389;SDS011;43217;52.694;6.214;2023-05-16T03:47:55;10.80;;;2.97;;
57389;SDS011;43217;52.694;6.214;2023-05-16T03:50:21;12.10;;;3.00;;
57389;SDS011;43217;52.694;6.214;2023-05-16T03:52:47;12.13;;;2.53;;
57389;SDS011;43217;52.694;6.214;2023-05-16T03:55:12;10.55;;;2.88;;
57389;SDS011;43217;52.694;6.214;2023-05-16T03:57:39;8.57;;;2.60;;
57389;SDS011;43217;52.694;6.214;2023-05-16T04:00:06;10.02;;;2.95;;
57389;SDS011;43217;52.694;6.214;2023-05-16T04:02:33;8.80;;;2.97;;
57389;SDS011;43217;52.694;6.214;2023-05-16T04:04:58;13.15;;;3.45;;
57389;SDS011;43217;52.694;6.214;2023-05-16T04:07:24;11.77;;;2.88;;
57389;SDS011;43217;52.694;6.214;2023-05-16T04:09:50;8.10;;;2.30;;
57389;SDS011;43217;52.694;6.214;2023-05-16T04:12:16;11.57;;;2.38;;
57389;SDS011;43217;52.694;6.214;2023-05-16T04:14:41;14.48;;;3.20;;
57389;SDS011;43217;52.694;6.214;2023-05-16T04:17:08;8.25;;;2.30;;
57389;SDS011;43217;52.694;6.214;2023-05-16T04:19:34;11.00;;;3.00;;
57389;SDS011;43217;52.694;6.214;2023-05-16T04:22:00;13.40;;;2.90;;
57389;SDS011;43217;52.694;6.214;2023-05-16T04:24:26;9.75;;;2.80;;
57389;SDS011;43217;52.694;6.214;2023-05-16T04:26:53;10.30;;;2.90;;
57389;SDS011;43217;52.694;6.214;2023-05-16T04:29:19;11.70;;;3.58;;
57389;SDS011;43217;52.694;6.214;2023-05-16T04:31:45;9.90;;;2.40;;
57389;SDS011;43217;52.694;6.214;2023-05-16T04:34:11;6.60;;;2.30;;
57389;SDS011;43217;52.694;6.214;2023-05-16T04:36:37;13.05;;;2.30;;
57389;SDS011;43217;52.694;6.214;2023-05-16T04:39:03;12.60;;;2.83;;
57389;SDS011;43217;52.694;6.214;2023-05-16T04:41:28;12.48;;;2.45;;
57389;SDS011;43217;52.694;6.214;2023-05-16T04:43:54;8.48;;;2.22;;
57389;SDS011;43217;52.694;6.214;2023-05-16T04:46:20;13.15;;;2.85;;
57389;SDS011;43217;52.694;6.214;2023-05-16T04:48:46;8.65;;;2.28;;
57389;SDS011;43217;52.694;6.214;2023-05-16T04:51:11;10.85;;;2.33;;
57389;SDS011;43217;52.694;6.214;2023-05-16T04:53:37;9.10;;;2.78;;
57389;SDS011;43217;52.694;6.214;2023-05-16T04:56:02;9.43;;;2.38;;
57389;SDS011;43217;52.694;6.214;2023-05-16T04:58:30;10.57;;;2.60;;
57389;SDS011;43217;52.694;6.214;2023-05-16T05:00:55;9.60;;;2.55;;
57389;SDS011;43217;52.694;6.214;2023-05-16T05:03:21;7.47;;;2.20;;
57389;SDS011;43217;52.694;6.214;2023-05-16T05:05:48;8.80;;;2.40;;
57389;SDS011;43217;52.694;6.214;2023-05-16T05:08:13;7.07;;;1.98;;
57389;SDS011;43217;52.694;6.214;2023-05-16T05:10:40;9.55;;;2.30;;
57389;SDS011;43217;52.694;6.214;2023-05-16T05:13:07;9.77;;;2.47;;
57389;SDS011;43217;52.694;6.214;2023-05-16T05:15:32;10.30;;;2.70;;
57389;SDS011;43217;52.694;6.214;2023-05-16T05:17:58;8.43;;;1.70;;
57389;SDS011;43217;52.694;6.214;2023-05-16T05:20:24;8.43;;;2.00;;
57389;SDS011;43217;52.694;6.214;2023-05-16T05:22:50;8.53;;;2.10;;
57389;SDS011;43217;52.694;6.214;2023-05-16T05:25:16;8.32;;;2.45;;
57389;SDS011;43217;52.694;6.214;2023-05-16T05:27:42;7.25;;;2.00;;
57389;SDS011;43217;52.694;6.214;2023-05-16T05:30:08;7.72;;;2.00;;
57389;SDS011;43217;52.694;6.214;2023-05-16T05:32:33;8.68;;;1.98;;
57389;SDS011;43217;52.694;6.214;2023-05-16T05:34:59;5.85;;;1.85;;
57389;SDS011;43217;52.694;6.214;2023-05-16T05:37:25;9.02;;;2.25;;
57389;SDS011;43217;52.694;6.214;2023-05-16T05:39:51;7.22;;;2.20;;
57389;SDS011;43217;52.694;6.214;2023-05-16T05:42:16;8.27;;;2.50;;
57389;SDS011;43217;52.694;6.214;2023-05-16T05:44:42;8.05;;;2.05;;
57389;SDS011;43217;52.694;6.214;2023-05-16T05:47:08;7.10;;;2.13;;
57389;SDS011;43217;52.694;6.214;2023-05-16T05:49:34;8.05;;;2.10;;
57389;SDS011;43217;52.694;6.214;2023-05-16T05:52:00;7.78;;;2.10;;
57389;SDS011;43217;52.694;6.214;2023-05-16T05:54:26;4.85;;;1.88;;
57389;SDS011;43217;52.694;6.214;2023-05-16T05:56:51;9.85;;;2.08;;
57389;SDS011;43217;52.694;6.214;2023-05-16T05:59:17;11.93;;;2.17;;
57389;SDS011;43217;52.694;6.214;2023-05-16T06:01:42;8.55;;;2.03;;
57389;SDS011;43217;52.694;6.214;2023-05-16T06:04:09;8.07;;;1.90;;
57389;SDS011;43217;52.694;6.214;2023-05-16T06:06:35;8.43;;;2.10;;
57389;SDS011;43217;52.694;6.214;2023-05-16T06:09:01;6.68;;;2.05;;
57389;SDS011;43217;52.694;6.214;2023-05-16T06:11:27;9.43;;;2.28;;
57389;SDS011;43217;52.694;6.214;2023-05-16T06:13:52;7.90;;;1.63;;
57389;SDS011;43217;52.694;6.214;2023-05-16T06:16:18;8.80;;;1.85;;
57389;SDS011;43217;52.694;6.214;2023-05-16T06:18:48;9.00;;;2.00;;
57389;SDS011;43217;52.694;6.214;2023-05-16T06:21:13;7.70;;;1.77;;
57389;SDS011;43217;52.694;6.214;2023-05-16T06:23:39;9.48;;;2.28;;
57389;SDS011;43217;52.694;6.214;2023-05-16T06:26:05;8.50;;;1.90;;
57389;SDS011;43217;52.694;6.214;2023-05-16T06:28:30;7.05;;;2.00;;
57389;SDS011;43217;52.694;6.214;2023-05-16T06:30:56;9.10;;;1.92;;
57389;SDS011;43217;52.694;6.214;2023-05-16T06:33:22;9.48;;;2.17;;
57389;SDS011;43217;52.694;6.214;2023-05-16T06:35:47;5.00;;;1.40;;
57389;SDS011;43217;52.694;6.214;2023-05-16T06:38:14;7.93;;;1.60;;
57389;SDS011;43217;52.694;6.214;2023-05-16T06:40:40;9.38;;;1.77;;
57389;SDS011;43217;52.694;6.214;2023-05-16T06:43:14;6.03;;;1.70;;
57389;SDS011;43217;52.694;6.214;2023-05-16T06:45:40;3.80;;;1.30;;
57389;SDS011;43217;52.694;6.214;2023-05-16T06:48:06;6.18;;;2.17;;
57389;SDS011;43217;52.694;6.214;2023-05-16T06:50:32;7.25;;;1.58;;
57389;SDS011;43217;52.694;6.214;2023-05-16T06:52:59;6.50;;;1.38;;
57389;SDS011;43217;52.694;6.214;2023-05-16T06:55:25;5.93;;;1.33;;
57389;SDS011;43217;52.694;6.214;2023-05-16T06:57:51;6.07;;;1.65;;
57389;SDS011;43217;52.694;6.214;2023-05-16T07:00:17;4.07;;;1.20;;
57389;SDS011;43217;52.694;6.214;2023-05-16T07:02:43;4.90;;;1.30;;
57389;SDS011;43217;52.694;6.214;2023-05-16T07:05:09;4.82;;;1.30;;
57389;SDS011;43217;52.694;6.214;2023-05-16T07:07:34;6.15;;;1.35;;
57389;SDS011;43217;52.694;6.214;2023-05-16T07:10:00;4.03;;;1.10;;
57389;SDS011;43217;52.694;6.214;2023-05-16T07:12:26;3.42;;;1.17;;
57389;SDS011;43217;52.694;6.214;2023-05-16T07:14:52;7.78;;;1.40;;
57389;SDS011;43217;52.694;6.214;2023-05-16T07:17:17;3.70;;;1.40;;
57389;SDS011;43217;52.694;6.214;2023-05-16T07:19:43;4.80;;;1.50;;
57389;SDS011;43217;52.694;6.214;2023-05-16T07:22:08;3.97;;;1.10;;
57389;SDS011;43217;52.694;6.214;2023-05-16T07:27:01;4.97;;;1.52;;
57389;SDS011;43217;52.694;6.214;2023-05-16T07:29:27;4.72;;;1.23;;
57389;SDS011;43217;52.694;6.214;2023-05-16T07:31:54;4.57;;;1.25;;
57389;SDS011;43217;52.694;6.214;2023-05-16T07:34:19;4.40;;;1.15;;
57389;SDS011;43217;52.694;6.214;2023-05-16T07:36:45;7.35;;;1.27;;
57389;SDS011;43217;52.694;6.214;2023-05-16T07:39:11;5.28;;;1.13;;
57389;SDS011;43217;52.694;6.214;2023-05-16T07:41:36;3.63;;;1.10;;
57389;SDS011;43217;52.694;6.214;2023-05-16T07:44:02;4.32;;;1.33;;
57389;SDS011;43217;52.694;6.214;2023-05-16T07:46:28;4.68;;;1.13;;
57389;SDS011;43217;52.694;6.214;2023-05-16T07:48:53;2.38;;;1.08;;
57389;SDS011;43217;52.694;6.214;2023-05-16T07:51:19;3.47;;;1.20;;
57389;SDS011;43217;52.694;6.214;2023-05-16T07:53:45;5.57;;;1.40;;
57389;SDS011;43217;52.694;6.214;2023-05-16T07:56:10;6.90;;;1.55;;
57389;SDS011;43217;52.694;6.214;2023-05-16T07:58:37;3.67;;;1.38;;
57389;SDS011;43217;52.694;6.214;2023-05-16T08:01:03;6.15;;;1.50;;
57389;SDS011;43217;52.694;6.214;2023-05-16T08:03:28;5.93;;;1.65;;
57389;SDS011;43217;52.694;6.214;2023-05-16T08:05:54;4.78;;;1.48;;
57389;SDS011;43217;52.694;6.214;2023-05-16T08:08:20;3.40;;;1.30;;
57389;SDS011;43217;52.694;6.214;2023-05-16T08:10:45;3.83;;;1.20;;
57389;SDS011;43217;52.694;6.214;2023-05-16T08:13:11;3.42;;;1.23;;
57389;SDS011;43217;52.694;6.214;2023-05-16T08:15:37;4.63;;;1.30;;
57389;SDS011;43217;52.694;6.214;2023-05-16T08:18:02;5.15;;;1.70;;
57389;SDS011;43217;52.694;6.214;2023-05-16T08:20:30;4.90;;;1.30;;
57389;SDS011;43217;52.694;6.214;2023-05-16T08:22:56;5.78;;;1.50;;
57389;SDS011;43217;52.694;6.214;2023-05-16T08:25:22;3.95;;;1.42;;
57389;SDS011;43217;52.694;6.214;2023-05-16T08:27:48;3.97;;;1.40;;
57389;SDS011;43217;52.694;6.214;2023-05-16T08:30:15;4.43;;;1.30;;
57389;SDS011;43217;52.694;6.214;2023-05-16T08:32:41;5.95;;;1.25;;
57389;SDS011;43217;52.694;6.214;2023-05-16T08:35:06;4.00;;;1.38;;
57389;SDS011;43217;52.694;6.214;2023-05-16T08:37:32;3.67;;;1.48;;
57389;SDS011;43217;52.694;6.214;2023-05-16T08:39:58;3.20;;;1.10;;
57389;SDS011;43217;52.694;6.214;2023-05-16T08:42:24;2.72;;;1.05;;
57389;SDS011;43217;52.694;6.214;2023-05-16T08:44:51;3.67;;;1.10;;
57389;SDS011;43217;52.694;6.214;2023-05-16T08:47:17;4.15;;;1.05;;
57389;SDS011;43217;52.694;6.214;2023-05-16T08:49:46;4.55;;;1.45;;
57389;SDS011;43217;52.694;6.214;2023-05-16T08:54:41;2.15;;;0.90;;
57389;SDS011;43217;52.694;6.214;2023-05-16T08:57:08;4.07;;;1.08;;
57389;SDS011;43217;52.694;6.214;2023-05-16T08:59:34;2.33;;;1.00;;
57389;SDS011;43217;52.694;6.214;2023-05-16T09:02:00;3.20;;;1.05;;
57389;SDS011;43217;52.694;6.214;2023-05-16T09:04:25;2.45;;;0.90;;
57389;SDS011;43217;52.694;6.214;2023-05-16T09:06:51;1.67;;;0.65;;
57389;SDS011;43217;52.694;6.214;2023-05-16T09:09:18;3.92;;;1.10;;
57389;SDS011;43217;52.694;6.214;2023-05-16T09:11:43;2.42;;;0.90;;
57389;SDS011;43217;52.694;6.214;2023-05-16T09:14:11;2.65;;;1.10;;
57389;SDS011;43217;52.694;6.214;2023-05-16T09:16:36;2.45;;;0.90;;
57389;SDS011;43217;52.694;6.214;2023-05-16T09:19:04;2.10;;;0.90;;
57389;SDS011;43217;52.694;6.214;2023-05-16T09:21:30;2.08;;;1.00;;
57389;SDS011;43217;52.694;6.214;2023-05-16T09:24:05;4.38;;;1.20;;
57389;SDS011;43217;52.694;6.214;2023-05-16T09:26:33;4.45;;;1.33;;
57389;SDS011;43217;52.694;6.214;2023-05-16T09:29:00;4.35;;;1.23;;
57389;SDS011;43217;52.694;6.214;2023-05-16T09:31:27;4.35;;;1.25;;
57389;SDS011;43217;52.694;6.214;2023-05-16T09:34:01;2.90;;;0.95;;
57389;SDS011;43217;52.694;6.214;2023-05-16T09:36:30;3.45;;;1.35;;
57389;SDS011;43217;52.694;6.214;2023-05-16T09:38:56;3.42;;;1.20;;
57389;SDS011;43217;52.694;6.214;2023-05-16T09:41:22;3.75;;;1.40;;
57389;SDS011;43217;52.694;6.214;2023-05-16T09:43:47;4.68;;;1.48;;
57389;SDS011;43217;52.694;6.214;2023-05-16T09:46:13;4.07;;;1.35;;
57389;SDS011;43217;52.694;6.214;2023-05-16T09:48:48;5.18;;;1.60;;
57389;SDS011;43217;52.694;6.214;2023-05-16T09:51:16;4.70;;;1.45;;
57389;SDS011;43217;52.694;6.214;2023-05-16T09:53:46;4.53;;;1.10;;
57389;SDS011;43217;52.694;6.214;2023-05-16T09:56:12;5.15;;;1.33;;
57389;SDS011;43217;52.694;6.214;2023-05-16T09:58:40;4.80;;;1.08;;
57389;SDS011;43217;52.694;6.214;2023-05-16T10:01:08;5.35;;;1.27;;
57389;SDS011;43217;52.694;6.214;2023-05-16T10:03:35;5.78;;;1.30;;
57389;SDS011;43217;52.694;6.214;2023-05-16T10:06:03;3.85;;;1.45;;
57389;SDS011;43217;52.694;6.214;2023-05-16T10:08:30;4.60;;;1.05;;
57389;SDS011;43217;52.694;6.214;2023-05-16T10:11:01;3.35;;;1.20;;
57389;SDS011;43217;52.694;6.214;2023-05-16T10:13:28;3.88;;;1.40;;
57389;SDS011;43217;52.694;6.214;2023-05-16T10:15:56;7.18;;;1.55;;
57389;SDS011;43217;52.694;6.214;2023-05-16T10:18:30;7.25;;;1.58;;
57389;SDS011;43217;52.694;6.214;2023-05-16T10:20:57;5.53;;;1.20;;
57389;SDS011;43217;52.694;6.214;2023-05-16T10:23:30;4.55;;;1.45;;
57389;SDS011;43217;52.694;6.214;2023-05-16T10:25:56;4.40;;;1.30;;
57389;SDS011;43217;52.694;6.214;2023-05-16T10:28:23;4.63;;;1.17;;
57389;SDS011;43217;52.694;6.214;2023-05-16T10:30:55;5.40;;;1.45;;
57389;SDS011;43217;52.694;6.214;2023-05-16T10:33:21;4.57;;;1.55;;
57389;SDS011;43217;52.694;6.214;2023-05-16T10:35:47;5.18;;;1.42;;
57389;SDS011;43217;52.694;6.214;2023-05-16T10:38:13;5.55;;;1.45;;
57389;SDS011;43217;52.694;6.214;2023-05-16T10:40:41;5.35;;;1.60;;
57389;SDS011;43217;52.694;6.214;2023-05-16T10:43:08;5.18;;;1.25;;
57389;SDS011;43217;52.694;6.214;2023-05-16T10:45:34;4.07;;;1.70;;
57389;SDS011;43217;52.694;6.214;2023-05-16T10:48:05;4.97;;;2.10;;
57389;SDS011;43217;52.694;6.214;2023-05-16T10:50:43;5.20;;;1.30;;
57389;SDS011;43217;52.694;6.214;2023-05-16T10:53:14;6.63;;;1.90;;
57389;SDS011;43217;52.694;6.214;2023-05-16T10:55:44;4.40;;;1.48;;
57389;SDS011;43217;52.694;6.214;2023-05-16T11:04:07;4.47;;;1.15;;
57389;SDS011;43217;52.694;6.214;2023-05-16T11:11:43;3.90;;;1.52;;
57389;SDS011;43217;52.694;6.214;2023-05-16T11:17:22;6.50;;;1.40;;
57389;SDS011;43217;52.694;6.214;2023-05-16T11:19:49;5.65;;;1.80;;
57389;SDS011;43217;52.694;6.214;2023-05-16T11:32:30;5.70;;;1.80;;
57389;SDS011;43217;52.694;6.214;2023-05-16T11:34:59;4.70;;;1.50;;
57389;SDS011;43217;52.694;6.214;2023-05-16T11:37:26;6.28;;;1.98;;
57389;SDS011;43217;52.694;6.214;2023-05-16T11:39:52;4.28;;;1.30;;
57389;SDS011;43217;52.694;6.214;2023-05-16T11:42:18;5.55;;;1.63;;
57389;SDS011;43217;52.694;6.214;2023-05-16T11:44:44;3.17;;;1.00;;
57389;SDS011;43217;52.694;6.214;2023-05-16T11:47:10;3.75;;;1.40;;
57389;SDS011;43217;52.694;6.214;2023-05-16T11:49:36;5.20;;;1.30;;
57389;SDS011;43217;52.694;6.214;2023-05-16T11:52:03;4.80;;;1.08;;
57389;SDS011;43217;52.694;6.214;2023-05-16T11:54:29;4.18;;;1.60;;
57389;SDS011;43217;52.694;6.214;2023-05-16T11:56:56;2.55;;;0.90;;
57389;SDS011;43217;52.694;6.214;2023-05-16T11:59:22;3.33;;;1.17;;
57389;SDS011;43217;52.694;6.214;2023-05-16T12:01:48;3.58;;;1.40;;
57389;SDS011;43217;52.694;6.214;2023-05-16T12:04:15;3.05;;;1.02;;
57389;SDS011;43217;52.694;6.214;2023-05-16T12:06:42;2.28;;;1.10;;
57389;SDS011;43217;52.694;6.214;2023-05-16T12:09:13;2.90;;;0.88;;
57389;SDS011;43217;52.694;6.214;2023-05-16T12:11:42;3.05;;;1.10;;
57389;SDS011;43217;52.694;6.214;2023-05-16T12:14:09;2.67;;;0.90;;
57389;SDS011;43217;52.694;6.214;2023-05-16T12:16:37;4.20;;;1.65;;
57389;SDS011;43217;52.694;6.214;2023-05-16T12:19:06;2.70;;;1.33;;
57389;SDS011;43217;52.694;6.214;2023-05-16T12:21:33;2.20;;;1.13;;
57389;SDS011;43217;52.694;6.214;2023-05-16T12:23:59;3.35;;;1.42;;
57389;SDS011;43217;52.694;6.214;2023-05-16T12:26:26;3.55;;;1.10;;
57389;SDS011;43217;52.694;6.214;2023-05-16T12:28:55;1.80;;;1.20;;
57389;SDS011;43217;52.694;6.214;2023-05-16T12:31:27;3.03;;;1.30;;
57389;SDS011;43217;52.694;6.214;2023-05-16T12:33:57;3.42;;;1.10;;
57389;SDS011;43217;52.694;6.214;2023-05-16T12:36:24;2.85;;;1.02;;
57389;SDS011;43217;52.694;6.214;2023-05-16T12:38:52;3.40;;;1.30;;
57389;SDS011;43217;52.694;6.214;2023-05-16T12:41:18;3.05;;;1.33;;
57389;SDS011;43217;52.694;6.214;2023-05-16T12:43:45;3.25;;;1.30;;
57389;SDS011;43217;52.694;6.214;2023-05-16T12:46:11;4.28;;;1.35;;
57389;SDS011;43217;52.694;6.214;2023-05-16T12:48:37;4.53;;;1.40;;
57389;SDS011;43217;52.694;6.214;2023-05-16T12:51:14;4.88;;;1.42;;
57389;SDS011;43217;52.694;6.214;2023-05-16T12:56:08;2.50;;;1.17;;
57389;SDS011;43217;52.694;6.214;2023-05-16T12:58:34;3.63;;;1.48;;
57389;SDS011;43217;52.694;6.214;2023-05-16T13:00:59;4.22;;;1.50;;
57389;SDS011;43217;52.694;6.214;2023-05-16T13:03:25;4.30;;;1.50;;
57389;SDS011;43217;52.694;6.214;2023-05-16T13:05:51;4.05;;;1.70;;
57389;SDS011;43217;52.694;6.214;2023-05-16T13:08:17;4.00;;;1.80;;
57389;SDS011;43217;52.694;6.214;2023-05-16T13:10:42;3.53;;;1.63;;
57389;SDS011;43217;52.694;6.214;2023-05-16T13:13:08;4.15;;;1.65;;
57389;SDS011;43217;52.694;6.214;2023-05-16T13:15:34;4.72;;;1.98;;
57389;SDS011;43217;52.694;6.214;2023-05-16T13:17:59;6.53;;;2.00;;
57389;SDS011;43217;52.694;6.214;2023-05-16T13:20:25;6.53;;;2.35;;
57389;SDS011;43217;52.694;6.214;2023-05-16T13:22:51;5.80;;;2.13;;
57389;SDS011;43217;52.694;6.214;2023-05-16T13:25:16;6.03;;;2.17;;
57389;SDS011;43217;52.694;6.214;2023-05-16T13:27:42;6.88;;;2.60;;
57389;SDS011;43217;52.694;6.214;2023-05-16T13:30:08;4.90;;;2.70;;
57389;SDS011;43217;52.694;6.214;2023-05-16T13:32:34;6.25;;;2.50;;
57389;SDS011;43217;52.694;6.214;2023-05-16T13:34:59;5.82;;;2.90;;
57389;SDS011;43217;52.694;6.214;2023-05-16T13:37:25;3.08;;;2.42;;
57389;SDS011;43217;52.694;6.214;2023-05-16T13:39:51;6.13;;;3.35;;
57389;SDS011;43217;52.694;6.214;2023-05-16T13:42:18;5.18;;;2.88;;
57389;SDS011;43217;52.694;6.214;2023-05-16T13:44:45;4.35;;;2.75;;
57389;SDS011;43217;52.694;6.214;2023-05-16T13:47:10;3.95;;;2.58;;
57389;SDS011;43217;52.694;6.214;2023-05-16T13:49:36;5.43;;;3.17;;
57389;SDS011;43217;52.694;6.214;2023-05-16T13:52:03;5.37;;;3.00;;
57389;SDS011;43217;52.694;6.214;2023-05-16T13:54:29;7.80;;;3.13;;
57389;SDS011;43217;52.694;6.214;2023-05-16T13:56:55;5.70;;;3.03;;
57389;SDS011;43217;52.694;6.214;2023-05-16T13:59:21;6.75;;;2.75;;
57389;SDS011;43217;52.694;6.214;2023-05-16T14:01:47;5.85;;;3.17;;
57389;SDS011;43217;52.694;6.214;2023-05-16T14:04:13;4.70;;;3.00;;
57389;SDS011;43217;52.694;6.214;2023-05-16T14:06:38;5.80;;;3.67;;
57389;SDS011;43217;52.694;6.214;2023-05-16T14:09:04;6.43;;;3.70;;
57389;SDS011;43217;52.694;6.214;2023-05-16T14:11:30;5.45;;;3.50;;
57389;SDS011;43217;52.694;6.214;2023-05-16T14:13:56;7.07;;;3.70;;
57389;SDS011;43217;52.694;6.214;2023-05-16T14:16:22;6.20;;;3.58;;
57389;SDS011;43217;52.694;6.214;2023-05-16T14:18:47;6.95;;;3.53;;
57389;SDS011;43217;52.694;6.214;2023-05-16T14:21:13;5.40;;;3.50;;
57389;SDS011;43217;52.694;6.214;2023-05-16T14:23:39;5.15;;;3.13;;
57389;SDS011;43217;52.694;6.214;2023-05-16T14:26:04;5.80;;;3.15;;
57389;SDS011;43217;52.694;6.214;2023-05-16T14:28:30;5.47;;;3.10;;
57389;SDS011;43217;52.694;6.214;2023-05-16T14:30:59;6.20;;;2.47;;
57389;SDS011;43217;52.694;6.214;2023-05-16T14:33:25;5.75;;;2.65;;
57389;SDS011;43217;52.694;6.214;2023-05-16T14:35:51;6.25;;;2.60;;
57389;SDS011;43217;52.694;6.214;2023-05-16T14:38:17;5.18;;;2.47;;
57389;SDS011;43217;52.694;6.214;2023-05-16T14:40:43;4.88;;;3.00;;
57389;SDS011;43217;52.694;6.214;2023-05-16T14:43:08;5.18;;;2.78;;
57389;SDS011;43217;52.694;6.214;2023-05-16T14:45:35;6.30;;;2.90;;
57389;SDS011;43217;52.694;6.214;2023-05-16T14:48:05;7.05;;;3.45;;
57389;SDS011;43217;52.694;6.214;2023-05-16T14:50:31;3.90;;;3.00;;
57389;SDS011;43217;52.694;6.214;2023-05-16T14:52:56;4.68;;;2.97;;
57389;SDS011;43217;52.694;6.214;2023-05-16T14:55:22;6.18;;;3.35;;
57389;SDS011;43217;52.694;6.214;2023-05-16T14:57:48;5.90;;;3.30;;
57389;SDS011;43217;52.694;6.214;2023-05-16T15:00:14;6.65;;;2.92;;
57389;SDS011;43217;52.694;6.214;2023-05-16T15:02:41;4.03;;;3.33;;
57389;SDS011;43217;52.694;6.214;2023-05-16T15:05:07;5.53;;;3.05;;
57389;SDS011;43217;52.694;6.214;2023-05-16T15:07:33;6.95;;;2.90;;
57389;SDS011;43217;52.694;6.214;2023-05-16T15:09:59;5.07;;;3.25;;
57389;SDS011;43217;52.694;6.214;2023-05-16T15:12:24;5.68;;;3.28;;
57389;SDS011;43217;52.694;6.214;2023-05-16T15:14:50;5.95;;;3.17;;
57389;SDS011;43217;52.694;6.214;2023-05-16T15:17:16;5.22;;;2.97;;
57389;SDS011;43217;52.694;6.214;2023-05-16T15:19:42;5.32;;;2.97;;
57389;SDS011;43217;52.694;6.214;2023-05-16T15:22:07;5.32;;;2.70;;
57389;SDS011;43217;52.694;6.214;2023-05-16T15:24:35;5.72;;;2.67;;
57389;SDS011;43217;52.694;6.214;2023-05-16T15:27:00;4.18;;;2.83;;
57389;SDS011;43217;52.694;6.214;2023-05-16T15:29:31;5.45;;;3.20;;
57389;SDS011;43217;52.694;6.214;2023-05-16T15:31:57;6.20;;;3.00;;